sensor_id;sensor_type;location;lat;lon;timestamp;pressure;altitude;pressure_sealevel;temperature;humidity
9139;BME280;4604;48.616;9.548;2023-01-26T00:01:09;97429.53;;;0.48;100.00
9139;BME280;4604;48.616;9.548;2023-01-26T00:03:37;97424.53;;;0.43;100.00
9139;BME280;4604;48.616;9.548;2023-01-26T00:06:03;97427.13;;;0.43;100.00
9139;BME280;4604;48.616;9.548;2023-01-26T00:08:35;97420.34;;;0.39;100.00
9139;BME280;4604;48.616;9.548;2023-01-26T00:11:03;97414.31;;;0.38;100.00
9139;BME280;4604;48.616;9.548;2023-01-26T00:13:30;97415.06;;;0.42;100.00
9139;BME280;4604;48.616;9.548;2023-01-26T00:15:57;97408.16;;;0.41;100.00
9139;BME280;4604;48.616;9.548;2023-01-26T00:18:24;97402.84;;;0.44;100.00
9139;BME280;4604;48.616;9.548;2023-01-26T00:20:54;97403.50;;;0.49;100.00
9139;BME280;4604;48.616;9.548;2023-01-26T00:23:21;97406.00;;;0.51;100.00
9139;BME280;4604;48.616;9.548;2023-01-26T00:25:49;97401.59;;;0.53;100.00
9139;BME280;4604;48.616;9.548;2023-01-26T00:28:15;97398.88;;;0.56;100.00
9139;BME280;4604;48.616;9.548;2023-01-26T00:30:42;97385.81;;;0.57;100.00
9139;BME280;4604;48.616;9.548;2023-01-26T00:33:09;97381.31;;;0.61;100.00
9139;BME280;4604;48.616;9.548;2023-01-26T00:35:35;97387.38;;;0.61;100.00
9139;BME280;4604;48.616;9.548;2023-01-26T00:38:02;97382.25;;;0.60;100.00
9139;BME280;4604;48.616;9.548;2023-01-26T00:40:29;97377.00;;;0.61;100.00
9139;BME280;4604;48.616;9.548;2023-01-26T00:42:57;97369.31;;;0.58;100.00
9139;BME280;4604;48.616;9.548;2023-01-26T00:45:24;97361.75;;;0.54;100.00
9139;BME280;4604;48.616;9.548;2023-01-26T00:47:51;97361.47;;;0.60;100.00
9139;BME280;4604;48.616;9.548;2023-01-26T00:50:18;97353.97;;;0.54;100.00
9139;BME280;4604;48.616;9.548;2023-01-26T00:52:44;97351.69;;;0.46;100.00
9139;BME280;4604;48.616;9.548;2023-01-26T00:55:11;97342.22;;;0.45;100.00
9139;BME280;4604;48.616;9.548;2023-01-26T00:57:38;97352.06;;;0.57;100.00
9139;BME280;4604;48.616;9.548;2023-01-26T01:00:07;97346.88;;;0.57;100.00
9139;BME280;4604;48.616;9.548;2023-01-26T01:02:37;97338.59;;;0.49;100.00
9139;BME280;4604;48.616;9.548;2023-01-26T01:05:04;97341.03;;;0.52;100.00
9139;BME280;4604;48.616;9.548;2023-01-26T01:07:31;97333.19;;;0.54;100.00
9139;BME280;4604;48.616;9.548;2023-01-26T01:09:58;97349.72;;;0.51;100.00
9139;BME280;4604;48.616;9.548;2023-01-26T01:12:25;97347.84;;;0.55;100.00
9139;BME280;4604;48.616;9.548;2023-01-26T01:14:51;97338.09;;;0.60;100.00
9139;BME280;4604;48.616;9.548;2023-01-26T01:17:19;97338.25;;;0.57;100.00
9139;BME280;4604;48.616;9.548;2023-01-26T01:19:46;97334.88;;;0.55;100.00
9139;BME280;4604;48.616;9.548;2023-01-26T01:22:12;97338.03;;;0.61;100.00
9139;BME280;4604;48.616;9.548;2023-01-26T01:24:39;97336.53;;;0.56;100.00
9139;BME280;4604;48.616;9.548;2023-01-26T01:27:06;97335.50;;;0.60;100.00
9139;BME280;4604;48.616;9.548;2023-01-26T01:29:33;97331.16;;;0.60;100.00
9139;BME280;4604;48.616;9.548;2023-01-26T01:32:00;97325.13;;;0.60;100.00
9139;BME280;4604;48.616;9.548;2023-01-26T01:34:28;97334.19;;;0.70;100.00
9139;BME280;4604;48.616;9.548;2023-01-26T01:36:54;97328.63;;;0.78;100.00
9139;BME280;4604;48.616;9.548;2023-01-26T01:39:21;97317.56;;;0.74;100.00
9139;BME280;4604;48.616;9.548;2023-01-26T01:41:48;97331.03;;;0.82;100.00
9139;BME280;4604;48.616;9.548;2023-01-26T01:44:16;97325.63;;;0.87;100.00
9139;BME280;4604;48.616;9.548;2023-01-26T01:46:50;97327.06;;;0.55;100.00
9139;BME280;4604;48.616;9.548;2023-01-26T01:49:21;97314.63;;;0.42;100.00
9139;BME280;4604;48.616;9.548;2023-01-26T01:51:54;97320.16;;;0.35;100.00
9139;BME280;4604;48.616;9.548;2023-01-26T01:54:27;97322.91;;;0.32;100.00
9139;BME280;4604;48.616;9.548;2023-01-26T01:56:57;97316.97;;;0.28;100.00
9139;BME280;4604;48.616;9.548;2023-01-26T01:59:25;97322.13;;;0.30;100.00
9139;BME280;4604;48.616;9.548;2023-01-26T02:01:52;97320.34;;;0.30;100.00
9139;BME280;4604;48.616;9.548;2023-01-26T02:04:22;97324.91;;;0.25;100.00
9139;BME280;4604;48.616;9.548;2023-01-26T02:06:50;97324.00;;;0.26;100.00
9139;BME280;4604;48.616;9.548;2023-01-26T02:09:24;97315.38;;;0.26;100.00
9139;BME280;4604;48.616;9.548;2023-01-26T02:12:10;97311.47;;;0.15;100.00
9139;BME280;4604;48.616;9.548;2023-01-26T02:14:39;97309.59;;;0.19;100.00
9139;BME280;4604;48.616;9.548;2023-01-26T02:17:06;97310.19;;;0.26;100.00
9139;BME280;4604;48.616;9.548;2023-01-26T02:19:40;97309.16;;;0.30;100.00
9139;BME280;4604;48.616;9.548;2023-01-26T02:22:14;97290.97;;;0.30;100.00
9139;BME280;4604;48.616;9.548;2023-01-26T02:24:44;97295.19;;;0.32;100.00
9139;BME280;4604;48.616;9.548;2023-01-26T02:27:12;97284.91;;;0.29;100.00
9139;BME280;4604;48.616;9.548;2023-01-26T02:29:39;97283.09;;;0.31;100.00
9139;BME280;4604;48.616;9.548;2023-01-26T02:32:06;97281.22;;;0.35;100.00
9139;BME280;4604;48.616;9.548;2023-01-26T02:34:33;97278.34;;;0.41;100.00
9139;BME280;4604;48.616;9.548;2023-01-26T02:36:59;97273.16;;;0.41;100.00
9139;BME280;4604;48.616;9.548;2023-01-26T02:39:37;97273.03;;;0.44;100.00
9139;BME280;4604;48.616;9.548;2023-01-26T02:42:06;97273.88;;;0.45;100.00
9139;BME280;4604;48.616;9.548;2023-01-26T02:44:52;97265.00;;;0.49;100.00
9139;BME280;4604;48.616;9.548;2023-01-26T02:47:19;97261.03;;;0.60;100.00
9139;BME280;4604;48.616;9.548;2023-01-26T02:49:46;97261.03;;;0.60;100.00
9139;BME280;4604;48.616;9.548;2023-01-26T02:52:12;97244.13;;;0.52;100.00
9139;BME280;4604;48.616;9.548;2023-01-26T02:54:38;97262.00;;;0.58;100.00
9139;BME280;4604;48.616;9.548;2023-01-26T02:57:22;97262.94;;;0.57;100.00
9139;BME280;4604;48.616;9.548;2023-01-26T02:59:51;97251.78;;;0.55;100.00
9139;BME280;4604;48.616;9.548;2023-01-26T03:02:18;97247.34;;;0.57;100.00
9139;BME280;4604;48.616;9.548;2023-01-26T03:04:45;97242.22;;;0.55;100.00
9139;BME280;4604;48.616;9.548;2023-01-26T03:07:12;97244.91;;;0.54;100.00
9139;BME280;4604;48.616;9.548;2023-01-26T03:09:38;97242.38;;;0.52;100.00
9139;BME280;4604;48.616;9.548;2023-01-26T03:12:05;97242.16;;;0.57;100.00
9139;BME280;4604;48.616;9.548;2023-01-26T03:14:32;97233.59;;;0.55;100.00
9139;BME280;4604;48.616;9.548;2023-01-26T03:17:00;97242.56;;;0.48;100.00
9139;BME280;4604;48.616;9.548;2023-01-26T03:19:28;97248.53;;;0.50;100.00
9139;BME280;4604;48.616;9.548;2023-01-26T03:22:12;97243.41;;;0.48;100.00
9139;BME280;4604;48.616;9.548;2023-01-26T03:24:56;97252.75;;;0.52;100.00
9139;BME280;4604;48.616;9.548;2023-01-26T03:27:42;97254.63;;;0.49;100.00
9139;BME280;4604;48.616;9.548;2023-01-26T03:30:10;97243.16;;;0.54;100.00
9139;BME280;4604;48.616;9.548;2023-01-26T03:32:39;97238.34;;;0.45;100.00
9139;BME280;4604;48.616;9.548;2023-01-26T03:35:06;97248.53;;;0.50;100.00
9139;BME280;4604;48.616;9.548;2023-01-26T03:37:34;97244.97;;;0.52;100.00
9139;BME280;4604;48.616;9.548;2023-01-26T03:40:09;97243.41;;;0.48;100.00
9139;BME280;4604;48.616;9.548;2023-01-26T03:42:55;97239.13;;;0.28;100.00
9139;BME280;4604;48.616;9.548;2023-01-26T03:45:39;97239.69;;;0.35;100.00
9139;BME280;4604;48.616;9.548;2023-01-26T03:48:24;97242.91;;;0.40;100.00
9139;BME280;4604;48.616;9.548;2023-01-26T03:51:08;97241.94;;;0.42;100.00
9139;BME280;4604;48.616;9.548;2023-01-26T03:53:52;97243.41;;;0.48;100.00
9139;BME280;4604;48.616;9.548;2023-01-26T03:56:36;97247.84;;;0.84;100.00
9139;BME280;4604;48.616;9.548;2023-01-26T03:59:04;97229.38;;;0.71;100.00
9139;BME280;4604;48.616;9.548;2023-01-26T04:01:34;97235.16;;;0.59;100.00
9139;BME280;4604;48.616;9.548;2023-01-26T04:04:03;97238.63;;;0.39;100.00
9139;BME280;4604;48.616;9.548;2023-01-26T04:06:48;97245.66;;;0.37;100.00
9139;BME280;4604;48.616;9.548;2023-01-26T04:09:33;97232.44;;;0.23;100.00
9139;BME280;4604;48.616;9.548;2023-01-26T04:12:01;97229.22;;;0.17;100.00
9139;BME280;4604;48.616;9.548;2023-01-26T04:14:28;97234.97;;;0.24;100.00
9139;BME280;4604;48.616;9.548;2023-01-26T04:17:12;97231.81;;;0.17;100.00
9139;BME280;4604;48.616;9.548;2023-01-26T04:19:57;97230.84;;;0.20;100.00
9139;BME280;4604;48.616;9.548;2023-01-26T04:22:41;97218.75;;;0.19;100.00
9139;BME280;4604;48.616;9.548;2023-01-26T04:25:10;97220.66;;;0.15;100.00
9139;BME280;4604;48.616;9.548;2023-01-26T04:27:38;97217.13;;;0.16;100.00
9139;BME280;4604;48.616;9.548;2023-01-26T04:30:07;97222.97;;;0.21;100.00
9139;BME280;4604;48.616;9.548;2023-01-26T04:32:34;97218.75;;;0.19;100.00
9139;BME280;4604;48.616;9.548;2023-01-26T04:35:02;97214.41;;;0.19;100.00
9139;BME280;4604;48.616;9.548;2023-01-26T04:37:29;97217.56;;;0.26;100.00
9139;BME280;4604;48.616;9.548;2023-01-26T04:39:56;97213.06;;;0.11;100.00
9139;BME280;4604;48.616;9.548;2023-01-26T04:42:22;97201.97;;;0.07;100.00
9139;BME280;4604;48.616;9.548;2023-01-26T04:44:49;97207.19;;;-0.13;100.00
9139;BME280;4604;48.616;9.548;2023-01-26T04:47:16;97201.81;;;-0.09;100.00
9139;BME280;4604;48.616;9.548;2023-01-26T04:49:43;97201.69;;;-0.06;100.00
9139;BME280;4604;48.616;9.548;2023-01-26T04:52:11;97189.53;;;-0.05;100.00
9139;BME280;4604;48.616;9.548;2023-01-26T04:54:38;97205.25;;;-0.08;100.00
9139;BME280;4604;48.616;9.548;2023-01-26T04:57:05;97203.19;;;0.00;100.00
9139;BME280;4604;48.616;9.548;2023-01-26T04:59:32;97200.59;;;0.00;100.00
9139;BME280;4604;48.616;9.548;2023-01-26T05:01:59;97199.66;;;0.01;100.00
9139;BME280;4604;48.616;9.548;2023-01-26T05:04:25;97209.56;;;0.12;100.00
9139;BME280;4604;48.616;9.548;2023-01-26T05:06:52;97209.75;;;-0.12;100.00
9139;BME280;4604;48.616;9.548;2023-01-26T05:09:20;97200.44;;;-0.17;100.00
9139;BME280;4604;48.616;9.548;2023-01-26T05:11:47;97208.06;;;-0.33;100.00
9139;BME280;4604;48.616;9.548;2023-01-26T05:14:14;97201.72;;;-0.26;100.00
9139;BME280;4604;48.616;9.548;2023-01-26T05:16:40;97200.72;;;-0.24;100.00
9139;BME280;4604;48.616;9.548;2023-01-26T05:19:07;97204.31;;;-0.26;100.00
9139;BME280;4604;48.616;9.548;2023-01-26T05:21:34;97211.44;;;-0.31;100.00
9139;BME280;4604;48.616;9.548;2023-01-26T05:24:00;97191.91;;;-0.40;100.00
9139;BME280;4604;48.616;9.548;2023-01-26T05:26:29;97213.94;;;-0.30;100.00
9139;BME280;4604;48.616;9.548;2023-01-26T05:28:55;97208.84;;;-0.31;100.00
9139;BME280;4604;48.616;9.548;2023-01-26T05:31:22;97212.06;;;-0.26;100.00
9139;BME280;4604;48.616;9.548;2023-01-26T05:33:48;97214.59;;;-0.25;100.00
9139;BME280;4604;48.616;9.548;2023-01-26T05:36:15;97218.09;;;-0.26;100.00
9139;BME280;4604;48.616;9.548;2023-01-26T05:38:41;97209.22;;;-0.20;100.00
9139;BME280;4604;48.616;9.548;2023-01-26T05:41:08;97204.09;;;-0.22;100.00
9139;BME280;4604;48.616;9.548;2023-01-26T05:43:36;97209.75;;;-0.12;100.00
9139;BME280;4604;48.616;9.548;2023-01-26T05:46:03;97210.38;;;-0.07;100.00
9139;BME280;4604;48.616;9.548;2023-01-26T05:48:30;97211.22;;;-0.06;100.00
9139;BME280;4604;48.616;9.548;2023-01-26T05:50:56;97208.81;;;-0.11;100.00
9139;BME280;4604;48.616;9.548;2023-01-26T05:53:23;97216.34;;;-0.05;100.00
9139;BME280;4604;48.616;9.548;2023-01-26T05:55:50;97219.97;;;-0.09;100.00
9139;BME280;4604;48.616;9.548;2023-01-26T05:58:16;97216.75;;;-0.14;100.00
9139;BME280;4604;48.616;9.548;2023-01-26T06:00:45;97205.53;;;-0.14;100.00
9139;BME280;4604;48.616;9.548;2023-01-26T06:03:11;97213.66;;;-0.03;100.00
9139;BME280;4604;48.616;9.548;2023-01-26T06:05:38;97210.72;;;-0.14;100.00
9139;BME280;4604;48.616;9.548;2023-01-26T06:08:05;97219.25;;;-0.12;100.00
9139;BME280;4604;48.616;9.548;2023-01-26T06:10:31;97220.75;;;-0.07;100.00
9139;BME280;4604;48.616;9.548;2023-01-26T06:12:59;97219.19;;;-0.11;100.00
9139;BME280;4604;48.616;9.548;2023-01-26T06:15:26;97231.38;;;-0.13;100.00
9139;BME280;4604;48.616;9.548;2023-01-26T06:17:54;97223.41;;;-0.08;100.00
9139;BME280;4604;48.616;9.548;2023-01-26T06:20:21;97225.09;;;-0.07;100.00
9139;BME280;4604;48.616;9.548;2023-01-26T06:22:47;97225.16;;;-0.09;100.00
9139;BME280;4604;48.616;9.548;2023-01-26T06:25:14;97228.25;;;-0.01;100.00
9139;BME280;4604;48.616;9.548;2023-01-26T06:27:40;97226.38;;;0.03;100.00
9139;BME280;4604;48.616;9.548;2023-01-26T06:30:08;97232.22;;;0.08;100.00
9139;BME280;4604;48.616;9.548;2023-01-26T06:32:35;97230.13;;;0.16;100.00
9139;BME280;4604;48.616;9.548;2023-01-26T06:35:04;97222.28;;;0.18;100.00
9139;BME280;4604;48.616;9.548;2023-01-26T06:37:33;97218.13;;;0.14;100.00
9139;BME280;4604;48.616;9.548;2023-01-26T06:40:00;97200.50;;;0.02;100.00
9139;BME280;4604;48.616;9.548;2023-01-26T06:42:26;97219.69;;;0.18;100.00
9139;BME280;4604;48.616;9.548;2023-01-26T06:44:53;97223.16;;;0.17;100.00
9139;BME280;4604;48.616;9.548;2023-01-26T06:47:21;97228.09;;;0.23;100.00
9139;BME280;4604;48.616;9.548;2023-01-26T06:49:48;97221.09;;;0.25;100.00
9139;BME280;4604;48.616;9.548;2023-01-26T06:52:25;97220.25;;;0.25;100.00
9139;BME280;4604;48.616;9.548;2023-01-26T06:54:53;97217.38;;;0.31;100.00
9139;BME280;4604;48.616;9.548;2023-01-26T06:57:20;97219.34;;;0.26;100.00
9139;BME280;4604;48.616;9.548;2023-01-26T06:59:46;97217.16;;;0.35;100.00
9139;BME280;4604;48.616;9.548;2023-01-26T07:02:19;97203.06;;;0.22;100.00
9139;BME280;4604;48.616;9.548;2023-01-26T07:05:00;97220.03;;;0.29;100.00
9139;BME280;4604;48.616;9.548;2023-01-26T07:07:28;97216.69;;;0.27;100.00
9139;BME280;4604;48.616;9.548;2023-01-26T07:09:55;97219.34;;;0.26;100.00
9139;BME280;4604;48.616;9.548;2023-01-26T07:12:21;97215.91;;;0.25;100.00
9139;BME280;4604;48.616;9.548;2023-01-26T07:14:48;97223.53;;;0.28;100.00
9139;BME280;4604;48.616;9.548;2023-01-26T07:17:15;97222.63;;;0.29;100.00
9139;BME280;4604;48.616;9.548;2023-01-26T07:19:42;97218.97;;;0.33;100.00
9139;BME280;4604;48.616;9.548;2023-01-26T07:22:09;97222.41;;;0.34;100.00
9139;BME280;4604;48.616;9.548;2023-01-26T07:24:37;97218.00;;;0.36;100.00
9139;BME280;4604;48.616;9.548;2023-01-26T07:27:04;97220.53;;;0.37;100.00
9139;BME280;4604;48.616;9.548;2023-01-26T07:29:31;97223.91;;;0.39;100.00
9139;BME280;4604;48.616;9.548;2023-01-26T07:31:58;97220.53;;;0.37;100.00
9139;BME280;4604;48.616;9.548;2023-01-26T07:34:24;97226.56;;;0.38;100.00
9139;BME280;4604;48.616;9.548;2023-01-26T07:36:51;97226.38;;;0.42;100.00
9139;BME280;4604;48.616;9.548;2023-01-26T07:39:18;97228.13;;;0.42;100.00
9139;BME280;4604;48.616;9.548;2023-01-26T07:41:46;97228.31;;;0.37;100.00
9139;BME280;4604;48.616;9.548;2023-01-26T07:44:14;97225.59;;;0.40;100.00
9139;BME280;4604;48.616;9.548;2023-01-26T07:46:40;97227.34;;;0.40;100.00
9139;BME280;4604;48.616;9.548;2023-01-26T07:49:07;97233.22;;;0.43;100.00
9139;BME280;4604;48.616;9.548;2023-01-26T07:51:34;97233.94;;;0.47;100.00
9139;BME280;4604;48.616;9.548;2023-01-26T07:54:00;97232.81;;;0.53;100.00
9139;BME280;4604;48.616;9.548;2023-01-26T07:56:27;97232.88;;;0.51;100.00
9139;BME280;4604;48.616;9.548;2023-01-26T07:58:55;97225.22;;;0.48;100.00
9139;BME280;4604;48.616;9.548;2023-01-26T08:01:22;97206.22;;;0.48;100.00
9139;BME280;4604;48.616;9.548;2023-01-26T08:03:50;97217.03;;;0.57;100.00
9139;BME280;4604;48.616;9.548;2023-01-26T08:06:18;97219.63;;;0.57;100.00
9139;BME280;4604;48.616;9.548;2023-01-26T08:08:45;97222.06;;;0.60;100.00
9139;BME280;4604;48.616;9.548;2023-01-26T08:11:16;97224.25;;;0.51;100.00
9139;BME280;4604;48.616;9.548;2023-01-26T08:13:43;97217.03;;;0.57;100.00
9139;BME280;4604;48.616;9.548;2023-01-26T08:16:11;97220.03;;;0.48;100.00
9139;BME280;4604;48.616;9.548;2023-01-26T08:18:38;97215.34;;;0.37;100.00
9139;BME280;4604;48.616;9.548;2023-01-26T08:21:05;97218.97;;;0.33;100.00
9139;BME280;4604;48.616;9.548;2023-01-26T08:23:31;97222.41;;;0.34;100.00
9139;BME280;4604;48.616;9.548;2023-01-26T08:26:00;97213.44;;;0.41;100.00
9139;BME280;4604;48.616;9.548;2023-01-26T08:28:27;97213.53;;;0.39;100.00
9139;BME280;4604;48.616;9.548;2023-01-26T08:30:54;97209.63;;;0.29;100.00
9139;BME280;4604;48.616;9.548;2023-01-26T08:33:22;97216.59;;;0.29;100.00
9139;BME280;4604;48.616;9.548;2023-01-26T08:35:49;97216.94;;;0.21;100.00
9139;BME280;4604;48.616;9.548;2023-01-26T08:38:16;97212.19;;;0.31;100.00
9139;BME280;4604;48.616;9.548;2023-01-26T08:40:42;97213.72;;;0.16;100.00
9139;BME280;4604;48.616;9.548;2023-01-26T08:43:09;97214.09;;;0.27;100.00
9139;BME280;4604;48.616;9.548;2023-01-26T08:45:36;97213.16;;;0.28;100.00
9139;BME280;4604;48.616;9.548;2023-01-26T08:48:03;97212.38;;;0.26;100.00
9139;BME280;4604;48.616;9.548;2023-01-26T08:50:31;97206.91;;;0.13;100.00
9139;BME280;4604;48.616;9.548;2023-01-26T08:52:57;97213.59;;;0.38;100.00
9139;BME280;4604;48.616;9.548;2023-01-26T08:55:24;97205.16;;;0.33;100.00
9139;BME280;4604;48.616;9.548;2023-01-26T08:57:52;97197.31;;;0.34;100.00
9139;BME280;4604;48.616;9.548;2023-01-26T09:00:22;97208.69;;;0.32;100.00
9139;BME280;4604;48.616;9.548;2023-01-26T09:02:49;97200.13;;;0.30;100.00
9139;BME280;4604;48.616;9.548;2023-01-26T09:05:16;97196.13;;;0.23;100.00
9139;BME280;4604;48.616;9.548;2023-01-26T09:07:44;97200.78;;;0.14;100.00
9139;BME280;4604;48.616;9.548;2023-01-26T09:10:10;97193.84;;;-0.04;100.00
9139;BME280;4604;48.616;9.548;2023-01-26T09:12:37;97189.97;;;0.05;100.00
9139;BME280;4604;48.616;9.548;2023-01-26T09:15:06;97191.13;;;0.18;100.00
9139;BME280;4604;48.616;9.548;2023-01-26T09:17:33;97188.25;;;0.05;100.00
9139;BME280;4604;48.616;9.548;2023-01-26T09:19:59;97189.88;;;0.08;100.00
9139;BME280;4604;48.616;9.548;2023-01-26T09:22:26;97200.00;;;-0.07;100.00
9139;BME280;4604;48.616;9.548;2023-01-26T09:24:55;97195.41;;;0.00;100.00
9139;BME280;4604;48.616;9.548;2023-01-26T09:27:22;97204.91;;;-0.01;100.00
9139;BME280;4604;48.616;9.548;2023-01-26T09:29:48;97208.47;;;-0.03;100.00
9139;BME280;4604;48.616;9.548;2023-01-26T09:32:15;97204.66;;;0.06;100.00
9139;BME280;4604;48.616;9.548;2023-01-26T09:34:42;97197.34;;;0.14;100.00
9139;BME280;4604;48.616;9.548;2023-01-26T09:37:09;97202.50;;;-0.05;100.00
9139;BME280;4604;48.616;9.548;2023-01-26T09:39:36;97211.59;;;-0.15;100.00
9139;BME280;4604;48.616;9.548;2023-01-26T09:42:28;97217.06;;;-0.22;100.00
9139;BME280;4604;48.616;9.548;2023-01-26T09:45:03;97220.25;;;-0.35;100.00
9139;BME280;4604;48.616;9.548;2023-01-26T09:47:40;97217.78;;;-0.38;100.00
9139;BME280;4604;48.616;9.548;2023-01-26T09:50:14;97223.03;;;-0.19;100.00
9139;BME280;4604;48.616;9.548;2023-01-26T09:52:49;97221.81;;;-0.31;100.00
9139;BME280;4604;48.616;9.548;2023-01-26T09:55:19;97224.47;;;-0.33;100.00
9139;BME280;4604;48.616;9.548;2023-01-26T09:57:50;97216.88;;;-0.37;100.00
9139;BME280;4604;48.616;9.548;2023-01-26T10:00:21;97220.44;;;-0.19;100.00
9139;BME280;4604;48.616;9.548;2023-01-26T10:03:00;97211.69;;;-0.17;100.00
9139;BME280;4604;48.616;9.548;2023-01-26T10:05:35;97217.84;;;-0.19;100.00
9139;BME280;4604;48.616;9.548;2023-01-26T10:08:08;97210.13;;;-0.21;100.00
9139;BME280;4604;48.616;9.548;2023-01-26T10:10:40;97207.59;;;-0.23;100.00
9139;BME280;4604;48.616;9.548;2023-01-26T10:13:11;97207.34;;;-0.16;100.00
9139;BME280;4604;48.616;9.548;2023-01-26T10:15:40;97204.09;;;-0.22;100.00
9139;BME280;4604;48.616;9.548;2023-01-26T10:18:11;97206.22;;;-0.11;100.00
9139;BME280;4604;48.616;9.548;2023-01-26T10:20:42;97215.47;;;-0.05;100.00
9139;BME280;4604;48.616;9.548;2023-01-26T10:23:14;97208.13;;;-0.14;100.00
9139;BME280;4604;48.616;9.548;2023-01-26T10:25:43;97215.13;;;-0.16;100.00
9139;BME280;4604;48.616;9.548;2023-01-26T10:28:13;97214.16;;;-0.14;100.00
9139;BME280;4604;48.616;9.548;2023-01-26T10:30:41;97206.75;;;-0.23;100.00
9139;BME280;4604;48.616;9.548;2023-01-26T10:33:14;97216.47;;;-0.28;100.00
9139;BME280;4604;48.616;9.548;2023-01-26T10:35:41;97213.16;;;-0.32;100.00
9139;BME280;4604;48.616;9.548;2023-01-26T10:38:39;97207.78;;;-0.27;100.00
9139;BME280;4604;48.616;9.548;2023-01-26T10:41:21;97202.06;;;-0.15;100.00
9139;BME280;4604;48.616;9.548;2023-01-26T10:43:54;97210.78;;;-0.16;100.00
9139;BME280;4604;48.616;9.548;2023-01-26T10:46:26;97212.63;;;0.01;100.00
9139;BME280;4604;48.616;9.548;2023-01-26T10:48:55;97214.44;;;-0.01;100.00
9139;BME280;4604;48.616;9.548;2023-01-26T10:51:25;97212.97;;;-0.07;100.00
9139;BME280;4604;48.616;9.548;2023-01-26T10:54:19;97205.19;;;-0.07;100.00
9139;BME280;4604;48.616;9.548;2023-01-26T10:56:47;97212.81;;;-0.04;100.00
9139;BME280;4604;48.616;9.548;2023-01-26T10:59:24;97217.53;;;0.07;100.00
9139;BME280;4604;48.616;9.548;2023-01-26T11:01:52;97211.88;;;0.18;100.00
9139;BME280;4604;48.616;9.548;2023-01-26T11:04:19;97211.78;;;0.01;100.00
9139;BME280;4604;48.616;9.548;2023-01-26T11:06:46;97212.13;;;-0.28;100.00
9139;BME280;4604;48.616;9.548;2023-01-26T11:09:18;97205.09;;;-0.24;100.00
9139;BME280;4604;48.616;9.548;2023-01-26T11:11:56;97204.56;;;-0.12;100.00
9139;BME280;4604;48.616;9.548;2023-01-26T11:14:26;97209.66;;;-0.10;100.00
9139;BME280;4604;48.616;9.548;2023-01-26T11:16:58;97212.13;;;-0.07;100.00
9139;BME280;4604;48.616;9.548;2023-01-26T11:19:50;97194.88;;;-0.08;100.00
9139;BME280;4604;48.616;9.548;2023-01-26T11:22:27;97190.22;;;-0.20;100.00
9139;BME280;4604;48.616;9.548;2023-01-26T11:25:01;97187.38;;;-0.14;100.00
9139;BME280;4604;48.616;9.548;2023-01-26T11:27:36;97185.38;;;-0.28;100.00
9139;BME280;4604;48.616;9.548;2023-01-26T11:30:23;97183.25;;;-0.39;100.00
9139;BME280;4604;48.616;9.548;2023-01-26T11:32:58;97184.59;;;-0.30;100.00
9139;BME280;4604;48.616;9.548;2023-01-26T11:35:32;97182.09;;;-0.13;100.00
9139;BME280;4604;48.616;9.548;2023-01-26T11:38:11;97174.53;;;-0.38;100.00
9139;BME280;4604;48.616;9.548;2023-01-26T11:40:47;97175.13;;;-0.31;100.00
9139;BME280;4604;48.616;9.548;2023-01-26T11:43:35;97178.22;;;-0.23;100.00
9139;BME280;4604;48.616;9.548;2023-01-26T11:46:20;97175.28;;;-0.15;100.00
9139;BME280;4604;48.616;9.548;2023-01-26T11:48:59;97177.31;;;-0.22;100.00
9139;BME280;4604;48.616;9.548;2023-01-26T11:51:40;97179.44;;;-0.11;100.00
9139;BME280;4604;48.616;9.548;2023-01-26T11:54:31;97164.03;;;-0.14;100.00
9139;BME280;4604;48.616;9.548;2023-01-26T11:57:10;97167.78;;;-0.22;100.00
9139;BME280;4604;48.616;9.548;2023-01-26T11:59:46;97170.19;;;-0.17;100.00
9139;BME280;4604;48.616;9.548;2023-01-26T12:02:26;97126.00;;;-0.55;100.00
9139;BME280;4604;48.616;9.548;2023-01-26T12:04:56;97172.44;;;-0.49;100.00
9139;BME280;4604;48.616;9.548;2023-01-26T12:07:29;97170.97;;;-0.35;100.00
9139;BME280;4604;48.616;9.548;2023-01-26T12:10:01;97163.25;;;-0.37;100.00
9139;BME280;4604;48.616;9.548;2023-01-26T12:12:33;97136.53;;;-0.58;100.00
9139;BME280;4604;48.616;9.548;2023-01-26T12:15:08;97166.78;;;-0.38;100.00
9139;BME280;4604;48.616;9.548;2023-01-26T12:17:44;97154.88;;;-0.23;100.00
9139;BME280;4604;48.616;9.548;2023-01-26T12:20:24;97162.56;;;-0.01;100.00
9139;BME280;4604;48.616;9.548;2023-01-26T12:22:57;97154.50;;;-0.14;100.00
9139;BME280;4604;48.616;9.548;2023-01-26T12:25:31;97152.94;;;-0.18;100.00
9139;BME280;4604;48.616;9.548;2023-01-26T12:28:05;97149.41;;;-0.36;100.00
9139;BME280;4604;48.616;9.548;2023-01-26T12:30:42;97143.88;;;-0.28;100.00
9139;BME280;4604;48.616;9.548;2023-01-26T12:33:13;97141.44;;;-0.31;100.00
9139;BME280;4604;48.616;9.548;2023-01-26T12:35:49;97135.94;;;-0.25;100.00
9139;BME280;4604;48.616;9.548;2023-01-26T12:38:29;97132.31;;;-0.21;100.00
9139;BME280;4604;48.616;9.548;2023-01-26T12:41:05;97134.88;;;-0.19;100.00
9139;BME280;4604;48.616;9.548;2023-01-26T12:43:43;97124.19;;;-0.13;100.00
9139;BME280;4604;48.616;9.548;2023-01-26T12:46:15;97116.16;;;-0.07;100.00
9139;BME280;4604;48.616;9.548;2023-01-26T12:48:46;97121.97;;;-0.02;100.00
9139;BME280;4604;48.616;9.548;2023-01-26T12:51:19;97118.59;;;-0.04;100.00
9139;BME280;4604;48.616;9.548;2023-01-26T12:53:53;97119.50;;;-0.05;100.00
9139;BME280;4604;48.616;9.548;2023-01-26T12:56:25;97108.03;;;0.01;100.00
9139;BME280;4604;48.616;9.548;2023-01-26T12:58:55;97114.19;;;-0.02;100.00
9139;BME280;4604;48.616;9.548;2023-01-26T13:01:24;97109.00;;;-0.02;100.00
9139;BME280;4604;48.616;9.548;2023-01-26T13:03:55;97092.66;;;-0.04;100.00
9139;BME280;4604;48.616;9.548;2023-01-26T13:06:24;97106.06;;;0.06;100.00
9139;BME280;4604;48.616;9.548;2023-01-26T13:08:59;97099.53;;;0.16;100.00
9139;BME280;4604;48.616;9.548;2023-01-26T13:11:43;97107.50;;;0.30;100.00
9139;BME280;4604;48.616;9.548;2023-01-26T13:14:30;97107.38;;;0.14;100.00
9139;BME280;4604;48.616;9.548;2023-01-26T13:26:23;97104.78;;;-0.44;100.00
9139;BME280;4604;48.616;9.548;2023-01-26T13:28:50;97104.59;;;-0.39;100.00
9139;BME280;4604;48.616;9.548;2023-01-26T13:31:32;97101.16;;;-0.40;100.00
9139;BME280;4604;48.616;9.548;2023-01-26T13:34:01;97093.03;;;-0.51;100.00
9139;BME280;4604;48.616;9.548;2023-01-26T13:36:35;97086.75;;;-0.66;100.00
9139;BME280;4604;48.616;9.548;2023-01-26T13:39:10;97087.47;;;-0.62;100.00
9139;BME280;4604;48.616;9.548;2023-01-26T13:41:44;97094.28;;;-0.60;100.00
9139;BME280;4604;48.616;9.548;2023-01-26T13:44:16;97108.31;;;-0.45;100.00